Albany, New York
Traffic Map
Current Weather Conditions
Albany, New York
Broken Clouds
Broken Clouds
76°
Feels Like: 76°
Wind Chill: 76° Ceiling: 8000
Heat Index: 76° Visibility: 10mi
Dew Point: 53° Wind: 8mph
Humidity: 45% Direction: 210° (SSW)
Pressure: 29.98in Gusts: 0mph
Raw Report DataKALB 302051Z 21007KT 10SM FEW055 BKN080 24/12 A2998 RMK AO2 SLP151 BKN V SCT T02440117 55004 $
Traffic Incident Summary
Active as of:
Severity:
Category:
InformationThere was an issue retrieving the traffic information for this location. Please try a different location or try again shortly.
Advertisements
Track Severe Weather on mobile